General Aviation Weather

Text Reports

Enter one or more of the following location identifiers separated by a space:

Zip Code, Four-Character ICAO or Three-Character IATA airport codes.

METAR - Aviation Routine Weather Report
KVWU - Waskish, Minnesota
Updated at 2:49 PM GMT on July 30, 2015 (9:49 AM CDT):
METAR KVWU 301449Z AUTO 23009KT 10SM CLR 21/16 A2995 RMK AO2
TAF - Terminal Area Forecast
KVWU - Waskish, Minnesota
Updated at 2:49 PM GMT on July 30, 2015 (9:49 AM CDT):
No TAF is currently available for this location.
Decoded:
No decoded TAF is available.
PIREP - Pilot Weather Report
KVWU - Waskish, Minnesota
Updated at 2:49 PM GMT on July 30, 2015 (9:49 AM CDT):
No PIREP is currently available for this location.
AIRMET - Airmens Meteorological Information
KVWU - Waskish, Minnesota
Updated at 2:49 PM GMT on July 30, 2015 (9:49 AM CDT):
No AIRMET is currently available for this location.
SIGMET - Significant Meteorological Information
KVWU - Waskish, Minnesota
Updated at 2:49 PM GMT on July 30, 2015 (9:49 AM CDT):
No SIGMET is currently available for this location.
NOTAM - Notice to Airmen
KVWU - Waskish, Minnesota
Updated at 2:49 PM GMT on July 30, 2015 (9:49 AM CDT):
No NOTAM is currently available for this location.
Forecast Area
KVWU - Waskish, Minnesota
Updated at 2:49 PM GMT on July 30, 2015 (9:49 AM CDT):
No NOTAM is currently available for this location.
Aviation Weather Maps